Time;durP1;ratioP1;P1;durP2;ratioP2;P2;SDS_P1;SDS_P2;PMS_P1;PMS_P2;Temp;Humidity;BMP_temperature;BMP_pressure;BME280_temperature;BME280_humidity;BME280_pressure;Samples;Min_cycle;Max_cycle;Signal;HPM_P1;HPM_P2
2022/08/30 00:01:01;;;;;;;0.10;0.10;;;;;;;;;;4146253;28;20054;-43
2022/08/30 00:03:05;;;;;;;0.10;0.05;;;;;;;;;;4147471;28;20065;-40
2022/08/30 00:05:08;;;;;;;0.10;0.10;;;;;;;;;;4146043;28;20088;-40
2022/08/30 00:07:09;;;;;;;0.00;0.00;;;;;;;;;;4147482;28;20057;-40
2022/08/30 00:09:10;;;;;;;0.38;0.10;;;;;;;;;;4147551;28;20144;-40
2022/08/30 00:11:14;;;;;;;0.10;0.10;;;;;;;;;;4147366;28;20050;-40
2022/08/30 00:13:18;;;;;;;0.00;0.00;;;;;;;;;;4146951;28;20517;-40
2022/08/30 00:15:19;;;;;;;0.00;0.00;;;;;;;;;;4146300;28;20451;-40
2022/08/30 00:17:21;;;;;;;0.10;0.10;;;;;;;;;;4147024;28;20176;-41
2022/08/30 00:19:22;;;;;;;0.00;0.00;;;;;;;;;;4147485;28;20145;-41
2022/08/30 00:21:23;;;;;;;0.10;0.05;;;;;;;;;;4147102;28;20112;-41
2022/08/30 00:23:25;;;;;;;0.03;0.00;;;;;;;;;;4147348;28;20073;-40
2022/08/30 00:25:27;;;;;;;0.10;0.03;;;;;;;;;;4147112;28;20547;-42
2022/08/30 00:27:29;;;;;;;0.00;0.00;;;;;;;;;;4146681;28;20053;-40
2022/08/30 00:29:30;;;;;;;0.05;0.05;;;;;;;;;;4147022;28;20053;-40
2022/08/30 00:31:32;;;;;;;0.13;0.08;;;;;;;;;;4147350;28;20054;-40
2022/08/30 00:33:33;;;;;;;0.30;0.30;;;;;;;;;;4147287;28;20112;-41
2022/08/30 00:35:34;;;;;;;0.10;0.10;;;;;;;;;;4147056;28;20559;-40
2022/08/30 00:37:35;;;;;;;0.22;0.08;;;;;;;;;;4146996;28;20112;-40
2022/08/30 00:39:37;;;;;;;0.03;0.00;;;;;;;;;;4145835;28;20046;-40
2022/08/30 00:41:38;;;;;;;0.13;0.05;;;;;;;;;;4146890;28;20387;-40
2022/08/30 00:43:39;;;;;;;0.00;0.00;;;;;;;;;;4146797;28;20100;-40
2022/08/30 00:45:41;;;;;;;0.00;0.00;;;;;;;;;;4147081;28;20199;-40
2022/08/30 00:47:42;;;;;;;0.03;0.00;;;;;;;;;;4147159;28;20454;-41
2022/08/30 00:49:48;;;;;;;0.10;0.10;;;;;;;;;;4147002;28;20065;-40
2022/08/30 00:51:50;;;;;;;0.20;0.10;;;;;;;;;;4129370;28;20477;-40
2022/08/30 00:53:54;;;;;;;0.00;0.00;;;;;;;;;;4146726;28;20453;-40
2022/08/30 00:55:56;;;;;;;0.00;0.00;;;;;;;;;;4129267;28;20548;-40
2022/08/30 00:58:01;;;;;;;0.10;0.10;;;;;;;;;;4145168;28;20521;-40
2022/08/30 01:00:04;;;;;;;0.13;0.10;;;;;;;;;;4143973;28;20407;-41
2022/08/30 01:02:06;;;;;;;0.00;0.00;;;;;;;;;;4130289;28;20383;-41
2022/08/30 01:04:07;;;;;;;0.08;0.08;;;;;;;;;;4129260;28;20105;-40
2022/08/30 01:06:09;;;;;;;0.03;0.00;;;;;;;;;;4129421;28;20153;-41
2022/08/30 01:08:10;;;;;;;0.05;0.05;;;;;;;;;;4130860;28;20340;-40
2022/08/30 01:10:13;;;;;;;0.10;0.00;;;;;;;;;;4133784;28;20113;-41
2022/08/30 01:12:14;;;;;;;0.10;0.05;;;;;;;;;;4133964;28;20058;-40
2022/08/30 01:14:16;;;;;;;0.03;0.03;;;;;;;;;;4132274;28;20062;-40
2022/08/30 01:16:17;;;;;;;0.10;0.10;;;;;;;;;;4133568;28;20054;-40
2022/08/30 01:18:20;;;;;;;0.10;0.00;;;;;;;;;;4132310;28;20488;-40
2022/08/30 01:20:30;;;;;;;0.00;0.00;;;;;;;;;;4132373;28;20431;-39
2022/08/30 01:22:54;;;;;;;0.10;0.10;;;;;;;;;;4132312;28;20054;-44
2022/08/30 01:24:58;;;;;;;0.10;0.10;;;;;;;;;;4132802;28;20104;-39
2022/08/30 01:26:59;;;;;;;0.00;0.00;;;;;;;;;;4132317;28;20120;-40
2022/08/30 01:29:05;;;;;;;0.00;0.00;;;;;;;;;;4133195;28;20077;-40
2022/08/30 01:31:07;;;;;;;0.05;0.05;;;;;;;;;;4100675;28;20055;-40
2022/08/30 01:33:10;;;;;;;0.10;0.10;;;;;;;;;;4131952;28;20054;-40
2022/08/30 01:35:14;;;;;;;0.10;0.10;;;;;;;;;;4133710;28;20059;-40
2022/08/30 01:37:23;;;;;;;0.00;0.00;;;;;;;;;;4133439;28;20058;-40
2022/08/30 01:39:24;;;;;;;0.03;0.03;;;;;;;;;;4132254;28;20120;-40
2022/08/30 01:41:34;;;;;;;0.00;0.00;;;;;;;;;;4133363;28;20486;-40
2022/08/30 01:43:35;;;;;;;0.68;0.20;;;;;;;;;;4132986;28;20058;-40
2022/08/30 01:45:37;;;;;;;0.10;0.10;;;;;;;;;;4133243;28;20394;-40
2022/08/30 01:47:38;;;;;;;0.00;0.00;;;;;;;;;;4133095;28;20112;-40
2022/08/30 01:49:40;;;;;;;0.10;0.10;;;;;;;;;;4137634;28;20456;-40
2022/08/30 01:51:42;;;;;;;0.08;0.00;;;;;;;;;;4149492;28;20100;-40
2022/08/30 01:53:44;;;;;;;0.10;0.10;;;;;;;;;;4149174;28;20489;-41
2022/08/30 01:55:46;;;;;;;0.10;0.10;;;;;;;;;;4149638;28;20409;-40
2022/08/30 01:57:48;;;;;;;0.28;0.10;;;;;;;;;;4149182;28;20559;-40
2022/08/30 01:59:49;;;;;;;0.00;0.00;;;;;;;;;;4149282;28;20551;-41
2022/08/30 02:01:51;;;;;;;0.52;0.10;;;;;;;;;;4148539;28;20069;-40
2022/08/30 02:03:53;;;;;;;0.10;0.10;;;;;;;;;;4148333;28;20057;-41
2022/08/30 02:05:55;;;;;;;0.10;0.10;;;;;;;;;;4148230;28;20062;-41
2022/08/30 02:07:56;;;;;;;0.10;0.10;;;;;;;;;;4146864;28;20054;-39
2022/08/30 02:09:57;;;;;;;0.10;0.10;;;;;;;;;;4147225;28;20149;-40
2022/08/30 02:11:59;;;;;;;0.00;0.00;;;;;;;;;;4147919;28;20438;-39
2022/08/30 02:14:00;;;;;;;0.00;0.00;;;;;;;;;;4147782;28;20466;-39
2022/08/30 02:16:01;;;;;;;0.10;0.10;;;;;;;;;;4147999;28;20058;-39
2022/08/30 02:18:02;;;;;;;0.00;0.00;;;;;;;;;;4148082;28;20061;-39
2022/08/30 02:20:05;;;;;;;0.00;0.00;;;;;;;;;;4147819;28;20058;-40
2022/08/30 02:22:06;;;;;;;0.10;0.10;;;;;;;;;;4147952;28;20050;-40
2022/08/30 02:24:08;;;;;;;0.00;0.00;;;;;;;;;;4146772;28;20096;-39
2022/08/30 02:26:10;;;;;;;0.00;0.00;;;;;;;;;;4146565;28;20509;-40
2022/08/30 02:28:14;;;;;;;0.00;0.00;;;;;;;;;;4147213;28;20058;-40
2022/08/30 02:30:15;;;;;;;0.45;0.10;;;;;;;;;;4131962;28;20069;-40
2022/08/30 02:32:16;;;;;;;0.10;0.10;;;;;;;;;;4131389;28;20059;-42
2022/08/30 02:34:18;;;;;;;0.05;0.00;;;;;;;;;;4131603;28;20556;-40
2022/08/30 02:36:20;;;;;;;0.10;0.10;;;;;;;;;;4131706;28;20124;-40
2022/08/30 02:38:22;;;;;;;0.10;0.10;;;;;;;;;;4131618;28;20120;-40
2022/08/30 02:40:23;;;;;;;0.10;0.10;;;;;;;;;;4131528;28;20418;-41
2022/08/30 02:42:25;;;;;;;0.00;0.00;;;;;;;;;;4131336;28;20054;-41
2022/08/30 02:44:26;;;;;;;0.10;0.10;;;;;;;;;;4131795;28;20081;-40
2022/08/30 02:46:27;;;;;;;0.10;0.10;;;;;;;;;;4131362;28;20109;-40
2022/08/30 02:48:28;;;;;;;0.10;0.10;;;;;;;;;;4131646;28;20050;-40
2022/08/30 02:50:30;;;;;;;0.10;0.10;;;;;;;;;;4131312;28;20438;-41
2022/08/30 02:52:31;;;;;;;0.03;0.00;;;;;;;;;;4129799;28;20054;-40
2022/08/30 02:54:32;;;;;;;0.10;0.10;;;;;;;;;;4131512;28;20082;-39
2022/08/30 02:56:33;;;;;;;0.00;0.00;;;;;;;;;;4130078;28;20054;-39
2022/08/30 02:58:35;;;;;;;0.10;0.10;;;;;;;;;;4129897;28;20058;-39
2022/08/30 03:00:37;;;;;;;0.00;0.00;;;;;;;;;;4138670;28;20104;-40
2022/08/30 03:02:39;;;;;;;0.20;0.05;;;;;;;;;;4108034;28;1163843;-41
2022/08/30 03:04:43;;;;;;;0.00;0.00;;;;;;;;;;4148206;28;20409;-39
2022/08/30 03:06:44;;;;;;;0.00;0.00;;;;;;;;;;4148928;28;20058;-40
2022/08/30 03:08:45;;;;;;;0.32;0.10;;;;;;;;;;4146441;28;20108;-40
2022/08/30 03:10:46;;;;;;;0.10;0.03;;;;;;;;;;4147617;28;20476;-40
2022/08/30 03:12:48;;;;;;;0.00;0.00;;;;;;;;;;4147859;28;20399;-39
2022/08/30 03:14:49;;;;;;;0.17;0.10;;;;;;;;;;4147965;28;20452;-39
2022/08/30 03:16:50;;;;;;;0.03;0.03;;;;;;;;;;4147976;28;20049;-40
2022/08/30 03:18:51;;;;;;;0.00;0.00;;;;;;;;;;4148072;28;20053;-39
2022/08/30 03:20:53;;;;;;;0.20;0.00;;;;;;;;;;4146883;28;20061;-41
2022/08/30 03:22:54;;;;;;;0.10;0.10;;;;;;;;;;4147903;28;20180;-39
2022/08/30 03:25:00;;;;;;;0.00;0.00;;;;;;;;;;4148201;28;20202;-39
2022/08/30 03:27:01;;;;;;;0.05;0.05;;;;;;;;;;4146795;28;20061;-40
2022/08/30 03:29:02;;;;;;;0.57;0.05;;;;;;;;;;4147730;28;20050;-40
2022/08/30 03:31:04;;;;;;;0.10;0.10;;;;;;;;;;4147214;28;20367;-40
2022/08/30 03:33:05;;;;;;;0.10;0.10;;;;;;;;;;4147604;28;20057;-39
2022/08/30 03:35:07;;;;;;;0.10;0.10;;;;;;;;;;4147924;28;20096;-40
2022/08/30 03:37:09;;;;;;;0.10;0.00;;;;;;;;;;4146563;28;20133;-39
2022/08/30 03:39:10;;;;;;;0.00;0.00;;;;;;;;;;4146713;28;20120;-39
2022/08/30 03:41:11;;;;;;;0.10;0.10;;;;;;;;;;4147880;28;20440;-40
2022/08/30 03:43:13;;;;;;;0.08;0.05;;;;;;;;;;4147058;28;20062;-41
2022/08/30 03:45:16;;;;;;;0.03;0.00;;;;;;;;;;4148067;28;20143;-40
2022/08/30 03:47:19;;;;;;;0.00;0.00;;;;;;;;;;4147576;28;20104;-40
2022/08/30 03:49:20;;;;;;;0.00;0.00;;;;;;;;;;4147688;28;20054;-39
2022/08/30 03:51:23;;;;;;;0.00;0.00;;;;;;;;;;4146035;28;20196;-40
2022/08/30 03:53:24;;;;;;;0.00;0.00;;;;;;;;;;4146207;28;20120;-39
2022/08/30 03:55:27;;;;;;;0.10;0.10;;;;;;;;;;4147461;28;20119;-40
2022/08/30 03:57:28;;;;;;;0.00;0.00;;;;;;;;;;4146940;28;20095;-39
2022/08/30 03:59:29;;;;;;;0.30;0.10;;;;;;;;;;4147288;28;20547;-40
2022/08/30 04:01:30;;;;;;;0.25;0.15;;;;;;;;;;4147123;28;20054;-41
2022/08/30 04:03:31;;;;;;;0.00;0.00;;;;;;;;;;4147417;28;20053;-40
2022/08/30 04:05:32;;;;;;;0.10;0.00;;;;;;;;;;4147467;28;20116;-39
2022/08/30 04:07:34;;;;;;;0.05;0.05;;;;;;;;;;4147168;28;20520;-39
2022/08/30 04:09:35;;;;;;;0.17;0.10;;;;;;;;;;4147352;28;20061;-39
2022/08/30 04:11:37;;;;;;;0.65;0.05;;;;;;;;;;4147096;28;20512;-40
2022/08/30 04:13:38;;;;;;;0.40;0.20;;;;;;;;;;4144956;28;20054;-40
2022/08/30 04:15:39;;;;;;;0.00;0.00;;;;;;;;;;4146090;28;20493;-40
2022/08/30 04:17:40;;;;;;;0.00;0.00;;;;;;;;;;4146055;28;20108;-39
2022/08/30 04:19:41;;;;;;;0.00;0.00;;;;;;;;;;4146984;28;20054;-39
2022/08/30 04:21:43;;;;;;;0.00;0.00;;;;;;;;;;4147070;28;20112;-40
2022/08/30 04:23:46;;;;;;;0.08;0.08;;;;;;;;;;4147189;28;20104;-40
2022/08/30 04:25:47;;;;;;;0.10;0.10;;;;;;;;;;4147033;28;20049;-40
2022/08/30 04:27:48;;;;;;;0.00;0.00;;;;;;;;;;4146552;28;20061;-39
2022/08/30 04:29:49;;;;;;;0.10;0.10;;;;;;;;;;4134317;28;20108;-39
2022/08/30 04:31:50;;;;;;;0.10;0.10;;;;;;;;;;4130652;28;20105;-39
2022/08/30 04:33:51;;;;;;;0.03;0.03;;;;;;;;;;4130662;28;20085;-39
2022/08/30 04:35:53;;;;;;;0.20;0.10;;;;;;;;;;4130532;28;20084;-40
2022/08/30 04:37:54;;;;;;;0.10;0.10;;;;;;;;;;4130608;28;20552;-39
2022/08/30 04:39:59;;;;;;;0.00;0.00;;;;;;;;;;4130855;28;20058;-40
2022/08/30 04:42:02;;;;;;;0.00;0.00;;;;;;;;;;4129314;28;20090;-39
2022/08/30 04:44:03;;;;;;;1.75;0.10;;;;;;;;;;4130073;28;20391;-39
2022/08/30 04:46:06;;;;;;;0.03;0.03;;;;;;;;;;4129235;28;20057;-39
2022/08/30 04:48:07;;;;;;;0.15;0.00;;;;;;;;;;4130392;28;20458;-39
2022/08/30 04:50:10;;;;;;;0.10;0.10;;;;;;;;;;4129354;28;20054;-39
2022/08/30 04:52:11;;;;;;;0.98;0.10;;;;;;;;;;4130446;28;20059;-40
2022/08/30 04:54:12;;;;;;;0.00;0.00;;;;;;;;;;4133334;28;20061;-40
2022/08/30 04:56:17;;;;;;;0.05;0.00;;;;;;;;;;4146330;28;20508;-39
2022/08/30 04:58:19;;;;;;;0.10;0.10;;;;;;;;;;4145367;28;20058;-40
2022/08/30 05:00:21;;;;;;;0.20;0.10;;;;;;;;;;4143759;28;20115;-41
2022/08/30 05:02:22;;;;;;;0.10;0.10;;;;;;;;;;4144678;28;20060;-39
2022/08/30 05:04:24;;;;;;;0.10;0.10;;;;;;;;;;4144635;28;20417;-39
2022/08/30 05:06:27;;;;;;;0.10;0.05;;;;;;;;;;4143721;28;20192;-39
2022/08/30 05:08:28;;;;;;;0.40;0.10;;;;;;;;;;4143421;28;20108;-39
2022/08/30 05:10:30;;;;;;;0.10;0.10;;;;;;;;;;4145069;28;20112;-40
2022/08/30 05:12:31;;;;;;;0.43;0.30;;;;;;;;;;4141927;28;20300;-40
2022/08/30 05:14:32;;;;;;;0.10;0.10;;;;;;;;;;4145040;28;20053;-38
2022/08/30 05:16:34;;;;;;;0.28;0.05;;;;;;;;;;4143736;28;20057;-39
2022/08/30 05:18:36;;;;;;;0.08;0.08;;;;;;;;;;4144915;28;20062;-39
2022/08/30 05:20:38;;;;;;;0.10;0.10;;;;;;;;;;4145234;28;20080;-38
2022/08/30 05:22:48;;;;;;;0.00;0.00;;;;;;;;;;4145272;28;20426;-38
2022/08/30 05:24:49;;;;;;;0.10;0.00;;;;;;;;;;4144807;28;20107;-39
2022/08/30 05:26:51;;;;;;;0.10;0.10;;;;;;;;;;4135848;28;20072;-39
2022/08/30 05:28:52;;;;;;;0.10;0.10;;;;;;;;;;4142999;28;20053;-40
2022/08/30 05:30:53;;;;;;;0.10;0.10;;;;;;;;;;4144451;28;20394;-39
2022/08/30 05:32:55;;;;;;;0.20;0.10;;;;;;;;;;4143717;28;20054;-40
2022/08/30 05:34:56;;;;;;;0.10;0.10;;;;;;;;;;4143388;28;20081;-40
2022/08/30 05:36:58;;;;;;;0.15;0.00;;;;;;;;;;4143689;28;20050;-41
2022/08/30 05:38:59;;;;;;;0.20;0.10;;;;;;;;;;4143651;28;20053;-40
2022/08/30 05:41:00;;;;;;;0.10;0.10;;;;;;;;;;4144980;28;20077;-39
2022/08/30 05:43:01;;;;;;;0.10;0.10;;;;;;;;;;4143951;28;20085;-39
2022/08/30 05:45:03;;;;;;;0.25;0.25;;;;;;;;;;4144426;28;20081;-43
2022/08/30 05:47:05;;;;;;;0.25;0.10;;;;;;;;;;4145155;28;20062;-39
2022/08/30 05:49:06;;;;;;;0.32;0.10;;;;;;;;;;4144197;28;20069;-40
2022/08/30 05:51:10;;;;;;;0.35;0.10;;;;;;;;;;4145325;28;20111;-40
2022/08/30 05:53:12;;;;;;;0.28;0.17;;;;;;;;;;4144516;28;20061;-40
2022/08/30 05:55:13;;;;;;;0.10;0.10;;;;;;;;;;4145158;28;20500;-40
2022/08/30 05:57:14;;;;;;;0.22;0.13;;;;;;;;;;4147424;28;20061;-40
2022/08/30 05:59:15;;;;;;;0.00;0.00;;;;;;;;;;4128893;28;20058;-39
2022/08/30 06:01:25;;;;;;;0.00;0.00;;;;;;;;;;4144881;28;20096;-40
2022/08/30 06:03:26;;;;;;;0.20;0.10;;;;;;;;;;4145702;28;20054;-39
2022/08/30 06:05:28;;;;;;;0.15;0.10;;;;;;;;;;4146639;28;20057;-40
2022/08/30 06:07:29;;;;;;;0.17;0.17;;;;;;;;;;4147312;28;20054;-40
2022/08/30 06:09:31;;;;;;;0.10;0.10;;;;;;;;;;4145068;28;20069;-40
2022/08/30 06:11:33;;;;;;;0.52;0.10;;;;;;;;;;4144304;28;20053;-40
2022/08/30 06:13:34;;;;;;;0.20;0.20;;;;;;;;;;4144472;28;20525;-40
2022/08/30 06:15:36;;;;;;;0.52;0.10;;;;;;;;;;4146192;28;20145;-42
2022/08/30 06:17:38;;;;;;;0.15;0.08;;;;;;;;;;4146349;28;20058;-39
2022/08/30 06:19:39;;;;;;;0.25;0.10;;;;;;;;;;4143915;28;20073;-39
2022/08/30 06:21:42;;;;;;;0.00;0.00;;;;;;;;;;4137618;28;20108;-40
2022/08/30 06:23:44;;;;;;;0.00;0.00;;;;;;;;;;4143411;28;20116;-39
2022/08/30 06:25:45;;;;;;;1.70;0.10;;;;;;;;;;4141639;28;20080;-38
2022/08/30 06:27:46;;;;;;;0.20;0.10;;;;;;;;;;4133362;28;20054;-39
2022/08/30 06:29:50;;;;;;;0.10;0.10;;;;;;;;;;4137572;28;20054;-42
2022/08/30 06:31:51;;;;;;;0.20;0.10;;;;;;;;;;4144632;28;20050;-40
2022/08/30 06:33:53;;;;;;;0.20;0.10;;;;;;;;;;4141288;28;20103;-39
2022/08/30 06:35:54;;;;;;;0.10;0.10;;;;;;;;;;4138771;28;20054;-40
2022/08/30 06:37:56;;;;;;;0.10;0.08;;;;;;;;;;4135210;28;20088;-41
2022/08/30 06:39:58;;;;;;;0.10;0.10;;;;;;;;;;4142908;28;21268;-39
2022/08/30 06:41:59;;;;;;;0.10;0.10;;;;;;;;;;4144256;28;20050;-42
2022/08/30 06:44:07;;;;;;;0.10;0.10;;;;;;;;;;4131828;28;20064;-40
2022/08/30 06:46:12;;;;;;;0.17;0.10;;;;;;;;;;4138240;28;20066;-43
2022/08/30 06:48:13;;;;;;;0.47;0.10;;;;;;;;;;4134526;28;20058;-41
2022/08/30 06:50:16;;;;;;;1.45;0.20;;;;;;;;;;4134322;28;20053;-40
2022/08/30 06:52:17;;;;;;;0.52;0.10;;;;;;;;;;4139343;28;20054;-40
2022/08/30 06:54:19;;;;;;;0.10;0.10;;;;;;;;;;4141337;28;20088;-39
2022/08/30 06:56:21;;;;;;;0.10;0.10;;;;;;;;;;4138968;28;20080;-40
2022/08/30 06:58:23;;;;;;;0.22;0.10;;;;;;;;;;4129961;28;20197;-40
2022/08/30 07:00:24;;;;;;;0.10;0.10;;;;;;;;;;4131771;28;20104;-40
2022/08/30 07:02:25;;;;;;;0.30;0.10;;;;;;;;;;4130577;28;20559;-41
2022/08/30 07:04:26;;;;;;;0.10;0.10;;;;;;;;;;4127452;28;20116;-41
2022/08/30 07:06:28;;;;;;;0.08;0.05;;;;;;;;;;4131835;28;20058;-41
2022/08/30 07:08:29;;;;;;;0.43;0.15;;;;;;;;;;4135886;28;20085;-39
2022/08/30 07:10:30;;;;;;;0.13;0.10;;;;;;;;;;4133615;28;20632;-40
2022/08/30 07:12:32;;;;;;;0.10;0.08;;;;;;;;;;4135534;28;20053;-40
2022/08/30 07:14:34;;;;;;;0.38;0.10;;;;;;;;;;4137457;28;20124;-40
2022/08/30 07:16:35;;;;;;;0.10;0.10;;;;;;;;;;4137964;28;20061;-43
2022/08/30 07:19:10;;;;;;;0.57;0.20;;;;;;;;;;4136435;28;20060;-40
2022/08/30 07:21:15;;;;;;;0.10;0.10;;;;;;;;;;4129533;28;20053;-40
2022/08/30 07:23:16;;;;;;;0.40;0.15;;;;;;;;;;4122756;28;20410;-42
2022/08/30 07:25:18;;;;;;;0.10;0.10;;;;;;;;;;4131226;28;20073;-39
2022/08/30 07:27:19;;;;;;;0.13;0.10;;;;;;;;;;4127550;28;20109;-43
2022/08/30 07:29:20;;;;;;;0.17;0.03;;;;;;;;;;4122915;28;20583;-42
2022/08/30 07:31:23;;;;;;;0.45;0.13;;;;;;;;;;4127260;28;20129;-43
2022/08/30 07:33:24;;;;;;;0.52;0.10;;;;;;;;;;4126404;28;20445;-39
2022/08/30 07:35:25;;;;;;;0.08;0.08;;;;;;;;;;4128630;28;21016;-40
2022/08/30 07:37:29;;;;;;;5.90;0.20;;;;;;;;;;4128950;28;20120;-40
2022/08/30 07:39:30;;;;;;;0.10;0.10;;;;;;;;;;4127148;28;20553;-42
2022/08/30 07:41:37;;;;;;;0.10;0.00;;;;;;;;;;4128942;28;20115;-44
2022/08/30 07:43:38;;;;;;;0.10;0.10;;;;;;;;;;4141372;28;20108;-40
2022/08/30 07:45:39;;;;;;;0.50;0.10;;;;;;;;;;4132952;28;20108;-41
2022/08/30 07:47:40;;;;;;;0.30;0.10;;;;;;;;;;4132298;28;20585;-44
2022/08/30 07:49:41;;;;;;;0.40;0.22;;;;;;;;;;4129965;28;21166;-45
2022/08/30 07:51:43;;;;;;;0.80;0.17;;;;;;;;;;4129144;28;20057;-43
2022/08/30 07:53:45;;;;;;;0.17;0.10;;;;;;;;;;4136110;28;20824;-39
2022/08/30 07:55:46;;;;;;;1.17;0.20;;;;;;;;;;4129592;28;20081;-41
2022/08/30 07:57:48;;;;;;;0.75;0.20;;;;;;;;;;4124564;28;20524;-41
2022/08/30 07:59:49;;;;;;;0.30;0.10;;;;;;;;;;4126015;28;20057;-40
2022/08/30 08:01:50;;;;;;;0.73;0.10;;;;;;;;;;4117110;28;20775;-43
2022/08/30 08:03:52;;;;;;;0.20;0.10;;;;;;;;;;4123242;28;20053;-41
2022/08/30 08:05:54;;;;;;;0.93;0.10;;;;;;;;;;4126176;28;20058;-49
2022/08/30 08:07:55;;;;;;;1.20;0.20;;;;;;;;;;4112944;28;20060;-45
2022/08/30 08:09:57;;;;;;;1.23;0.20;;;;;;;;;;4137686;28;20053;-43
2022/08/30 08:11:58;;;;;;;2.30;0.20;;;;;;;;;;4132573;28;20054;-43
2022/08/30 08:14:01;;;;;;;0.20;0.10;;;;;;;;;;4128996;28;20058;-47
2022/08/30 08:16:02;;;;;;;0.10;0.10;;;;;;;;;;4125539;28;20057;-45
2022/08/30 08:18:04;;;;;;;0.70;0.20;;;;;;;;;;4116202;28;20061;-43
2022/08/30 08:20:06;;;;;;;0.70;0.20;;;;;;;;;;4124247;28;20501;-44
2022/08/30 08:22:07;;;;;;;1.02;0.20;;;;;;;;;;4128037;28;20054;-46
2022/08/30 08:24:08;;;;;;;0.73;0.30;;;;;;;;;;4128310;28;20172;-46
2022/08/30 08:26:10;;;;;;;2.05;0.15;;;;;;;;;;4125571;28;20458;-45
2022/08/30 08:28:11;;;;;;;2.28;0.20;;;;;;;;;;4127373;28;20050;-50
2022/08/30 08:30:12;;;;;;;0.45;0.10;;;;;;;;;;4138406;28;20532;-44
2022/08/30 08:32:13;;;;;;;0.52;0.20;;;;;;;;;;4128390;28;21604;-43
2022/08/30 08:34:17;;;;;;;0.95;0.10;;;;;;;;;;4124698;28;20065;-43
2022/08/30 08:36:19;;;;;;;0.85;0.28;;;;;;;;;;4121106;28;20478;-43
2022/08/30 08:38:20;;;;;;;1.85;0.50;;;;;;;;;;4123679;28;20053;-43
2022/08/30 08:40:22;;;;;;;0.75;0.20;;;;;;;;;;4124040;28;20054;-43
2022/08/30 08:42:44;;;;;;;3.47;0.35;;;;;;;;;;4128994;28;20100;-44
2022/08/30 08:44:49;;;;;;;1.70;0.25;;;;;;;;;;4124874;28;20057;-42
2022/08/30 08:46:58;;;;;;;1.90;0.20;;;;;;;;;;4127347;28;20068;-42
2022/08/30 08:49:04;;;;;;;2.67;0.28;;;;;;;;;;4125604;28;20053;-42
2022/08/30 08:53:36;;;;;;;0.60;0.22;;;;;;;;;;4127636;28;20061;-40
2022/08/30 08:55:40;;;;;;;0.45;0.20;;;;;;;;;;4123816;28;20520;-39
2022/08/30 08:57:41;;;;;;;0.25;0.17;;;;;;;;;;4126768;28;20053;-39
2022/08/30 08:59:43;;;;;;;1.30;0.20;;;;;;;;;;4132828;28;20579;-42
2022/08/30 09:01:46;;;;;;;1.42;0.10;;;;;;;;;;4128209;28;20524;-42
2022/08/30 09:03:47;;;;;;;2.00;0.20;;;;;;;;;;4128896;28;21425;-41
2022/08/30 09:05:49;;;;;;;0.93;0.20;;;;;;;;;;4123879;28;20057;-43
2022/08/30 09:08:15;;;;;;;1.50;0.35;;;;;;;;;;4123055;28;20522;-43
2022/08/30 09:10:17;;;;;;;2.78;0.35;;;;;;;;;;4118387;28;20498;-44
2022/08/30 09:12:19;;;;;;;0.75;0.25;;;;;;;;;;4125668;28;20058;-42
2022/08/30 09:14:25;;;;;;;0.80;0.20;;;;;;;;;;4121983;28;20053;-39
2022/08/30 09:17:08;;;;;;;1.00;0.10;;;;;;;;;;4118390;28;20115;-42
2022/08/30 09:19:09;;;;;;;1.20;0.20;;;;;;;;;;4122229;28;20130;-42
2022/08/30 09:21:12;;;;;;;0.47;0.30;;;;;;;;;;4132819;28;20057;-40
2022/08/30 09:23:21;;;;;;;0.40;0.20;;;;;;;;;;4133857;28;20058;-41
2022/08/30 09:25:31;;;;;;;1.55;0.25;;;;;;;;;;4126538;28;20054;-40
2022/08/30 09:27:40;;;;;;;6.72;0.20;;;;;;;;;;4126568;28;20062;-41
2022/08/30 09:29:54;;;;;;;;;;;;;;;;;;4127957;28;20124;-41
2022/08/30 09:31:55;;;;;;;1.88;0.13;;;;;;;;;;4132817;28;19929;-39
2022/08/30 09:34:08;;;;;;;2.22;0.32;;;;;;;;;;4125442;28;20058;-40
2022/08/30 09:36:18;;;;;;;0.43;0.30;;;;;;;;;;4134197;28;20054;-39
2022/08/30 09:38:22;;;;;;;0.55;0.40;;;;;;;;;;4134341;28;20433;-41
2022/08/30 09:40:46;;;;;;;0.50;0.20;;;;;;;;;;4122832;28;20062;-41
2022/08/30 09:43:11;;;;;;;0.90;0.20;;;;;;;;;;4145839;28;20096;-38
2022/08/30 09:45:19;;;;;;;0.90;0.28;;;;;;;;;;4129515;28;20062;-41
2022/08/30 09:47:24;;;;;;;0.40;0.32;;;;;;;;;;4123388;28;20057;-39
2022/08/30 09:49:30;;;;;;;0.90;0.50;;;;;;;;;;4125582;28;20070;-41
2022/08/30 09:51:39;;;;;;;1.00;0.50;;;;;;;;;;4134956;28;20137;-40
2022/08/30 09:53:46;;;;;;;0.65;0.30;;;;;;;;;;4132911;28;20049;-41
2022/08/30 09:56:07;;;;;;;0.60;0.30;;;;;;;;;;4132170;28;20755;-42
2022/08/30 09:58:41;;;;;;;0.50;0.30;;;;;;;;;;4131536;28;20085;-40
2022/08/30 10:01:06;;;;;;;0.40;0.30;;;;;;;;;;4131006;28;20069;-39
2022/08/30 10:03:20;;;;;;;0.63;0.35;;;;;;;;;;4126385;28;21176;-41
2022/08/30 10:05:38;;;;;;;2.72;0.52;;;;;;;;;;4131562;28;20424;-44
2022/08/30 10:08:05;;;;;;;0.40;0.30;;;;;;;;;;4131748;28;20062;-39
2022/08/30 10:10:15;;;;;;;1.95;0.30;;;;;;;;;;4135294;28;20553;-40
2022/08/30 10:12:31;;;;;;;0.77;0.38;;;;;;;;;;4138460;28;20819;-39
2022/08/30 10:14:38;;;;;;;2.00;0.55;;;;;;;;;;4135791;28;20505;-41
2022/08/30 10:16:53;;;;;;;0.47;0.30;;;;;;;;;;4138553;28;20103;-39
2022/08/30 10:19:04;;;;;;;3.13;0.40;;;;;;;;;;4138678;28;20561;-39
2022/08/30 10:21:11;;;;;;;1.20;0.50;;;;;;;;;;4140419;28;20058;-39
2022/08/30 10:23:19;;;;;;;1.13;0.60;;;;;;;;;;4139614;28;20069;-41
2022/08/30 10:25:29;;;;;;;1.23;0.63;;;;;;;;;;4140044;28;20112;-40
2022/08/30 10:27:37;;;;;;;1.05;0.50;;;;;;;;;;4137652;28;20050;-39
2022/08/30 10:29:46;;;;;;;0.70;0.35;;;;;;;;;;4139890;28;20556;-39
2022/08/30 10:31:54;;;;;;;1.02;0.40;;;;;;;;;;4134481;28;20057;-39
2022/08/30 10:33:59;;;;;;;0.55;0.32;;;;;;;;;;4131971;28;20097;-42
2022/08/30 10:36:03;;;;;;;1.00;0.40;;;;;;;;;;4128761;28;20379;-40
2022/08/30 10:38:21;;;;;;;0.73;0.50;;;;;;;;;;4122117;28;20155;-40
2022/08/30 10:42:50;;;;;;;0.40;0.25;;;;;;;;;;4129263;28;20053;-38
2022/08/30 10:45:03;;;;;;;0.38;0.30;;;;;;;;;;4130932;28;20058;-38
2022/08/30 10:47:07;;;;;;;0.82;0.47;;;;;;;;;;4133422;28;20084;-37
2022/08/30 10:49:18;;;;;;;1.30;0.30;;;;;;;;;;4134391;28;20481;-39
2022/08/30 10:51:28;;;;;;;1.15;0.50;;;;;;;;;;4127184;28;20401;-39
2022/08/30 10:53:38;;;;;;;;;;;;;;;;;;4133358;28;20084;-39
2022/08/30 10:55:54;;;;;;;2.40;0.50;;;;;;;;;;4134316;28;19929;-38
2022/08/30 10:57:59;;;;;;;0.93;0.40;;;;;;;;;;4128971;28;20049;-38
2022/08/30 11:00:30;;;;;;;0.63;0.40;;;;;;;;;;4122936;28;20118;-42
2022/08/30 11:02:52;;;;;;;1.00;0.63;;;;;;;;;;4125998;28;20689;-38
2022/08/30 11:05:17;;;;;;;1.05;0.30;;;;;;;;;;4130393;28;20204;-39
2022/08/30 11:07:38;;;;;;;0.77;0.45;;;;;;;;;;4126204;28;20639;-40
2022/08/30 11:09:57;;;;;;;1.25;0.40;;;;;;;;;;4134635;28;20543;-40
2022/08/30 11:12:33;;;;;;;2.40;0.43;;;;;;;;;;4134657;28;20136;-39
2022/08/30 11:14:38;;;;;;;1.05;0.30;;;;;;;;;;4133658;28;20060;-40
2022/08/30 11:16:47;;;;;;;0.68;0.40;;;;;;;;;;4130022;28;20045;-45
2022/08/30 11:18:51;;;;;;;1.20;0.60;;;;;;;;;;4133050;28;20278;-41
2022/08/30 11:20:55;;;;;;;1.42;0.47;;;;;;;;;;4135441;28;20487;-40
2022/08/30 11:23:35;;;;;;;0.77;0.30;;;;;;;;;;4130628;28;20058;-39
2022/08/30 11:26:12;;;;;;;1.15;0.40;;;;;;;;;;4127422;28;20735;-41
2022/08/30 11:28:35;;;;;;;0.60;0.30;;;;;;;;;;4078558;28;20055;-41
2022/08/30 11:30:36;;;;;;;2.10;0.30;;;;;;;;;;4117833;28;20065;-41
2022/08/30 11:32:57;;;;;;;0.82;0.22;;;;;;;;;;4136022;28;20095;-41
2022/08/30 11:34:59;;;;;;;0.30;0.20;;;;;;;;;;4132862;28;20111;-41
2022/08/30 11:37:02;;;;;;;1.08;0.20;;;;;;;;;;4132589;28;20123;-39
2022/08/30 11:39:07;;;;;;;0.65;0.10;;;;;;;;;;4132485;28;20053;-40
2022/08/30 11:41:27;;;;;;;0.38;0.20;;;;;;;;;;4131842;28;20187;-40
2022/08/30 11:43:38;;;;;;;;;;;;;;;;;;4120715;28;20054;-39
2022/08/30 11:45:44;;;;;;;0.50;0.30;;;;;;;;;;4130230;28;19936;-42
2022/08/30 11:47:49;;;;;;;1.00;0.63;;;;;;;;;;4129150;28;20050;-40
2022/08/30 11:50:22;;;;;;;0.68;0.22;;;;;;;;;;4149186;28;20057;-40
2022/08/30 11:52:33;;;;;;;0.20;0.20;;;;;;;;;;4130805;28;20057;-43
2022/08/30 11:55:00;;;;;;;0.68;0.20;;;;;;;;;;4125224;28;20106;-41
2022/08/30 11:57:19;;;;;;;0.85;0.30;;;;;;;;;;4125745;28;20127;-41
2022/08/30 12:00:00;;;;;;;0.82;0.20;;;;;;;;;;4130694;28;20061;-41
2022/08/30 12:02:02;;;;;;;0.95;0.20;;;;;;;;;;4121930;28;20171;-42
2022/08/30 12:04:24;;;;;;;0.30;0.20;;;;;;;;;;4120602;28;20062;-42
2022/08/30 12:06:40;;;;;;;0.32;0.15;;;;;;;;;;4132585;28;20626;-41
2022/08/30 12:08:47;;;;;;;0.20;0.10;;;;;;;;;;4132509;28;20058;-41
2022/08/30 12:10:52;;;;;;;0.30;0.15;;;;;;;;;;4132566;28;20053;-41
2022/08/30 12:12:54;;;;;;;0.63;0.25;;;;;;;;;;4124805;28;20057;-41
2022/08/30 12:14:56;;;;;;;2.78;0.15;;;;;;;;;;4129077;28;20065;-40
2022/08/30 12:19:19;;;;;;;1.48;0.20;;;;;;;;;;4131333;28;20070;-40
2022/08/30 12:21:20;;;;;;;0.25;0.20;;;;;;;;;;4129693;28;20069;-42
2022/08/30 12:23:27;;;;;;;0.22;0.15;;;;;;;;;;4134646;28;20053;-42
2022/08/30 12:25:31;;;;;;;0.40;0.20;;;;;;;;;;4135243;28;20124;-43
2022/08/30 12:27:33;;;;;;;1.67;0.20;;;;;;;;;;4134238;28;20579;-43
2022/08/30 12:29:34;;;;;;;0.20;0.10;;;;;;;;;;4132714;28;20108;-44
2022/08/30 12:31:46;;;;;;;0.22;0.20;;;;;;;;;;4133941;28;20064;-43
2022/08/30 12:33:54;;;;;;;0.30;0.20;;;;;;;;;;4133234;28;20065;-41
2022/08/30 12:35:58;;;;;;;1.23;0.20;;;;;;;;;;4114585;28;20061;-42